Time;durP1;ratioP1;P1;durP2;ratioP2;P2;SDS_P1;SDS_P2;PMS_P1;PMS_P2;Temp;Humidity;BMP_temperature;BMP_pressure;BME280_temperature;BME280_humidity;BME280_pressure;Samples;Min_cycle;Max_cycle;Signal;HPM_P1;HPM_P2
2024/02/17 00:00:48;;;;;;;4.00;2.55;;;10.60;99.90;;;;;;2053068;28;20246;-73
2024/02/17 00:01:49;;;;;;;2.10;1.90;;;10.60;99.90;;;;;;2053559;28;20245;-73
2024/02/17 00:02:50;;;;;;;3.57;2.30;;;10.80;99.90;;;;;;2060646;28;20236;-73
2024/02/17 00:03:51;;;;;;;2.80;2.30;;;10.60;99.90;;;;;;2063574;28;20798;-73
2024/02/17 00:04:52;;;;;;;3.70;2.23;;;10.60;99.90;;;;;;2058348;28;20274;-73
2024/02/17 00:05:52;;;;;;;2.55;1.92;;;10.70;99.90;;;;;;2052389;28;20593;-74
2024/02/17 00:06:54;;;;;;;2.80;1.97;;;10.70;99.90;;;;;;2050470;28;20246;-74
2024/02/17 00:07:55;;;;;;;2.97;2.30;;;10.70;99.90;;;;;;2054624;28;20864;-74
2024/02/17 00:08:56;;;;;;;3.40;1.83;;;10.80;99.90;;;;;;2054804;28;20321;-74
2024/02/17 00:09:56;;;;;;;2.77;1.90;;;10.80;99.90;;;;;;2053621;28;20293;-73
2024/02/17 00:10:57;;;;;;;3.40;2.20;;;10.80;99.90;;;;;;2053948;28;20237;-73
2024/02/17 00:11:58;;;;;;;3.25;2.17;;;10.70;99.90;;;;;;2057005;28;20278;-73
2024/02/17 00:12:59;;;;;;;3.23;2.37;;;10.70;99.90;;;;;;2061269;28;20258;-75
2024/02/17 00:14:00;;;;;;;3.73;2.00;;;10.60;99.90;;;;;;2054845;28;20190;-74
2024/02/17 00:15:00;;;;;;;2.83;2.00;;;10.60;99.90;;;;;;2051081;28;20202;-73
2024/02/17 00:16:02;;;;;;;4.00;1.83;;;10.60;99.90;;;;;;2056246;28;20221;-73
2024/02/17 00:17:04;;;;;;;2.45;1.90;;;10.60;99.90;;;;;;2051068;28;20615;-74
2024/02/17 00:18:06;;;;;;;2.50;2.30;;;10.50;99.90;;;;;;2053953;28;20191;-73
2024/02/17 00:19:07;;;;;;;2.38;1.90;;;10.50;99.90;;;;;;2036545;28;20572;-74
2024/02/17 00:20:08;;;;;;;3.57;1.97;;;10.50;99.90;;;;;;2053837;28;20189;-74
2024/02/17 00:21:09;;;;;;;2.00;1.80;;;10.60;99.90;;;;;;2055501;28;20199;-74
2024/02/17 00:22:10;;;;;;;2.70;2.33;;;10.60;99.90;;;;;;2053320;28;20186;-75
2024/02/17 00:23:11;;;;;;;2.30;2.10;;;10.60;99.90;;;;;;2054072;28;20195;-75
2024/02/17 00:24:11;;;;;;;3.30;2.20;;;10.70;99.90;;;;;;2045888;28;20203;-75
2024/02/17 00:25:12;;;;;;;3.27;2.07;;;10.80;99.90;;;;;;2046009;28;20286;-77
2024/02/17 00:26:17;;;;;;;3.53;2.40;;;10.80;99.90;;;;;;2059794;28;20265;-74
2024/02/17 00:27:19;;;;;;;4.40;2.15;;;10.80;99.90;;;;;;2050153;28;20215;-75
2024/02/17 00:28:25;;;;;;;4.47;2.22;;;10.80;99.90;;;;;;2046247;28;20291;-77
2024/02/17 00:29:26;;;;;;;3.08;2.40;;;10.80;99.90;;;;;;2055534;28;20641;-75
2024/02/17 00:30:27;;;;;;;3.90;2.83;;;10.80;99.90;;;;;;2048869;28;20318;-75
2024/02/17 00:31:27;;;;;;;3.53;2.33;;;11.00;99.90;;;;;;2047741;28;20242;-73
2024/02/17 00:32:28;;;;;;;3.27;2.73;;;10.80;99.90;;;;;;2049595;28;20763;-75
2024/02/17 00:33:29;;;;;;;4.37;2.90;;;10.70;99.90;;;;;;2046729;28;20234;-76
2024/02/17 00:34:30;;;;;;;2.97;2.50;;;10.80;99.90;;;;;;2053536;28;20665;-76
2024/02/17 00:35:30;;;;;;;3.28;2.90;;;10.60;99.90;;;;;;2046460;28;20261;-75
2024/02/17 00:36:31;;;;;;;5.40;3.10;;;10.50;99.90;;;;;;2045969;28;20686;-75
2024/02/17 00:37:32;;;;;;;6.67;3.50;;;10.50;99.90;;;;;;2046043;28;20242;-75
2024/02/17 00:38:33;;;;;;;5.20;3.10;;;10.50;99.90;;;;;;2037946;29;20683;-75
2024/02/17 00:39:34;;;;;;;4.15;3.13;;;10.50;99.90;;;;;;2061068;28;20232;-76
2024/02/17 00:40:35;;;;;;;3.60;3.17;;;10.60;99.90;;;;;;2059846;28;20226;-75
2024/02/17 00:41:36;;;;;;;5.82;3.40;;;10.60;99.90;;;;;;2056771;28;20268;-75
2024/02/17 00:42:37;;;;;;;4.05;3.53;;;10.50;99.90;;;;;;2044149;28;20713;-74
2024/02/17 00:43:38;;;;;;;5.50;3.73;;;10.50;99.90;;;;;;2059529;28;20213;-74
2024/02/17 00:44:39;;;;;;;6.07;3.53;;;10.50;99.90;;;;;;2054361;28;20771;-74
2024/02/17 00:45:39;;;;;;;5.47;3.77;;;10.50;99.90;;;;;;2045478;28;20702;-74
2024/02/17 00:46:40;;;;;;;6.73;3.63;;;10.40;99.90;;;;;;2051275;28;20298;-75
2024/02/17 00:47:41;;;;;;;5.07;3.60;;;10.40;99.90;;;;;;2053094;28;20284;-76
2024/02/17 00:48:41;;;;;;;5.90;3.70;;;10.40;99.90;;;;;;2053656;28;20590;-74
2024/02/17 00:49:42;;;;;;;3.87;3.00;;;10.30;99.90;;;;;;2040669;28;20283;-74
2024/02/17 00:50:43;;;;;;;3.90;3.10;;;10.40;99.90;;;;;;2053061;28;20241;-74
2024/02/17 00:51:43;;;;;;;6.17;4.00;;;10.40;99.90;;;;;;2046086;28;20626;-75
2024/02/17 00:52:44;;;;;;;6.17;3.23;;;10.50;99.90;;;;;;2045507;28;20367;-74
2024/02/17 00:53:45;;;;;;;7.17;3.23;;;10.60;99.90;;;;;;2053834;28;20245;-74
2024/02/17 00:54:46;;;;;;;5.05;3.17;;;10.60;99.90;;;;;;2053407;28;20234;-74
2024/02/17 00:55:47;;;;;;;3.90;3.10;;;10.60;99.90;;;;;;2052280;28;20704;-75
2024/02/17 00:56:47;;;;;;;4.23;3.27;;;10.70;99.90;;;;;;2045583;28;20302;-75
2024/02/17 00:57:48;;;;;;;4.93;3.43;;;10.70;99.90;;;;;;2045445;28;20598;-75
2024/02/17 00:58:50;;;;;;;3.87;3.00;;;10.60;99.90;;;;;;2053036;28;20302;-75
2024/02/17 00:59:50;;;;;;;3.38;2.50;;;10.70;99.90;;;;;;2061838;28;20225;-75
2024/02/17 01:00:51;;;;;;;4.73;2.37;;;10.60;99.90;;;;;;2051924;28;20318;-75
2024/02/17 01:01:52;;;;;;;4.40;2.77;;;10.50;99.90;;;;;;2061375;28;20257;-75
2024/02/17 01:02:52;;;;;;;4.97;2.77;;;10.50;99.90;;;;;;2049539;28;20752;-74
2024/02/17 01:03:53;;;;;;;4.63;3.13;;;10.50;99.90;;;;;;2052810;28;20229;-72
2024/02/17 01:04:54;;;;;;;4.63;3.13;;;10.60;99.90;;;;;;2052919;28;20333;-74
2024/02/17 01:05:55;;;;;;;6.10;2.73;;;10.60;99.90;;;;;;2053818;28;20313;-76
2024/02/17 01:06:55;;;;;;;4.07;2.83;;;10.70;99.90;;;;;;2061385;28;20369;-75
2024/02/17 01:07:56;;;;;;;3.63;3.00;;;10.80;99.90;;;;;;2053875;28;20712;-75
2024/02/17 01:08:57;;;;;;;3.97;3.13;;;10.80;99.90;;;;;;2062207;28;20658;-76
2024/02/17 01:09:57;;;;;;;3.00;2.40;;;10.80;99.90;;;;;;2054116;28;20259;-75
2024/02/17 01:10:58;;;;;;;4.93;2.87;;;10.80;99.90;;;;;;2042391;29;20255;-75
2024/02/17 01:11:59;;;;;;;4.30;2.77;;;10.90;99.90;;;;;;2053440;28;20719;-72
2024/02/17 01:12:59;;;;;;;4.93;3.00;;;11.00;99.90;;;;;;2054046;28;20193;-74
2024/02/17 01:14:00;;;;;;;3.20;2.40;;;11.00;99.90;;;;;;2061911;28;20259;-74
2024/02/17 01:15:01;;;;;;;3.57;2.40;;;10.90;99.90;;;;;;2060877;28;20209;-74
2024/02/17 01:16:02;;;;;;;2.47;2.17;;;11.00;99.90;;;;;;2061717;28;20223;-75
2024/02/17 01:17:03;;;;;;;2.28;1.60;;;10.90;99.90;;;;;;2061014;28;20706;-76
2024/02/17 01:18:04;;;;;;;2.13;1.63;;;10.90;99.90;;;;;;2043985;28;20188;-75
2024/02/17 01:19:05;;;;;;;2.53;1.55;;;10.80;99.90;;;;;;2037422;29;20220;-75
2024/02/17 01:20:07;;;;;;;1.87;1.70;;;10.90;99.90;;;;;;2038133;29;20933;-72
2024/02/17 01:21:07;;;;;;;2.05;1.67;;;10.80;99.90;;;;;;2049355;28;20191;-75
2024/02/17 01:22:08;;;;;;;2.10;1.40;;;10.80;99.90;;;;;;2052154;28;20182;-75
2024/02/17 01:23:09;;;;;;;1.47;1.23;;;10.70;99.90;;;;;;2056534;28;20179;-74
2024/02/17 01:24:09;;;;;;;1.43;1.33;;;10.70;99.90;;;;;;2052962;28;20191;-75
2024/02/17 01:25:10;;;;;;;0.87;0.80;;;10.70;99.90;;;;;;2059502;28;20232;-74
2024/02/17 01:26:11;;;;;;;1.30;1.10;;;10.70;99.90;;;;;;2054936;28;20201;-74
2024/02/17 01:27:11;;;;;;;1.20;1.10;;;10.60;99.90;;;;;;2054558;28;20218;-75
2024/02/17 01:28:12;;;;;;;1.20;1.10;;;10.60;99.90;;;;;;2053375;28;20179;-75
2024/02/17 01:29:15;;;;;;;2.77;1.10;;;10.60;99.90;;;;;;2058963;28;20296;-75
2024/02/17 01:30:16;;;;;;;1.00;1.00;;;10.50;99.90;;;;;;2043639;28;20192;-75
2024/02/17 01:31:17;;;;;;;1.00;0.90;;;10.60;99.90;;;;;;2043282;28;20632;-75
2024/02/17 01:32:18;;;;;;;1.40;0.90;;;10.40;99.90;;;;;;2053636;28;20206;-74
2024/02/17 01:33:18;;;;;;;1.20;1.10;;;10.40;99.90;;;;;;2061066;28;20490;-75
2024/02/17 01:34:20;;;;;;;1.20;0.87;;;10.40;99.90;;;;;;2053442;28;20238;-75
2024/02/17 01:35:20;;;;;;;1.10;1.00;;;10.40;99.90;;;;;;2054120;28;20247;-75
2024/02/17 01:36:21;;;;;;;1.67;1.20;;;10.40;99.90;;;;;;2053815;28;20234;-75
2024/02/17 01:37:22;;;;;;;1.20;1.10;;;10.40;99.90;;;;;;2045492;28;20223;-76
2024/02/17 01:38:22;;;;;;;1.27;0.93;;;10.50;99.90;;;;;;2043868;28;20243;-75
2024/02/17 01:39:24;;;;;;;1.00;1.00;;;10.60;99.90;;;;;;2043173;28;20227;-75
2024/02/17 01:40:25;;;;;;;2.28;0.93;;;10.60;99.90;;;;;;2045327;28;20227;-74
2024/02/17 01:41:26;;;;;;;0.80;0.80;;;10.60;99.90;;;;;;2043624;28;20253;-75
2024/02/17 01:42:26;;;;;;;1.10;1.00;;;10.50;99.90;;;;;;2046800;28;20780;-75
2024/02/17 01:43:27;;;;;;;1.10;1.00;;;10.50;99.90;;;;;;2037748;28;20594;-75
2024/02/17 01:44:28;;;;;;;1.27;0.93;;;10.50;99.90;;;;;;2043294;29;20239;-75
2024/02/17 01:45:28;;;;;;;0.83;0.83;;;10.40;99.90;;;;;;2057595;28;20900;-75
2024/02/17 01:46:29;;;;;;;1.00;0.90;;;10.30;99.90;;;;;;2053797;28;20226;-75
2024/02/17 01:47:30;;;;;;;0.70;0.70;;;10.40;99.90;;;;;;2054229;28;20227;-76
2024/02/17 01:48:31;;;;;;;1.00;0.80;;;10.40;99.90;;;;;;2049542;28;20308;-75
2024/02/17 01:49:32;;;;;;;0.70;0.70;;;10.30;99.90;;;;;;2053820;28;20258;-75
2024/02/17 01:50:33;;;;;;;1.00;0.90;;;10.20;99.90;;;;;;2041283;28;20290;-75
2024/02/17 01:51:35;;;;;;;1.53;0.90;;;10.20;99.90;;;;;;2042403;28;20682;-75
2024/02/17 01:52:37;;;;;;;1.23;0.80;;;10.20;99.90;;;;;;2053865;28;20225;-75
2024/02/17 01:53:41;;;;;;;0.77;0.77;;;10.20;99.90;;;;;;2054122;28;20226;-75
2024/02/17 01:54:43;;;;;;;0.90;0.90;;;10.20;99.90;;;;;;2048141;28;20672;-75
2024/02/17 01:55:44;;;;;;;1.13;0.70;;;10.30;99.90;;;;;;2048260;28;20242;-75
2024/02/17 01:56:46;;;;;;;0.90;0.90;;;10.20;99.90;;;;;;2039742;28;20730;-76
2024/02/17 01:57:47;;;;;;;0.80;0.75;;;10.30;99.90;;;;;;2044804;28;20227;-75
2024/02/17 01:58:49;;;;;;;0.70;0.70;;;10.20;99.90;;;;;;2055668;28;20302;-75
2024/02/17 01:59:52;;;;;;;0.80;0.80;;;10.20;99.90;;;;;;2053950;28;20318;-75
2024/02/17 02:00:53;;;;;;;0.70;0.70;;;10.20;99.90;;;;;;2053584;28;20274;-76
2024/02/17 02:01:55;;;;;;;0.77;0.77;;;10.20;99.90;;;;;;2045509;28;20239;-75
2024/02/17 02:02:56;;;;;;;1.33;0.88;;;10.30;99.90;;;;;;2051794;28;20234;-75
2024/02/17 02:03:57;;;;;;;0.83;0.80;;;10.30;99.90;;;;;;2037916;28;20236;-75
2024/02/17 02:04:57;;;;;;;0.70;0.70;;;10.30;99.90;;;;;;2036949;29;20240;-75
2024/02/17 02:05:58;;;;;;;0.60;0.60;;;10.40;99.90;;;;;;2037301;28;20275;-75
2024/02/17 02:06:59;;;;;;;0.70;0.70;;;10.40;99.90;;;;;;2043047;29;20263;-74
2024/02/17 02:08:00;;;;;;;0.53;0.53;;;10.30;99.90;;;;;;2036444;29;20197;-74
2024/02/17 02:09:00;;;;;;;3.10;0.70;;;10.30;99.90;;;;;;2044869;28;20216;-75
2024/02/17 02:10:01;;;;;;;1.33;0.97;;;10.50;99.90;;;;;;2042643;28;20342;-74
2024/02/17 02:11:04;;;;;;;1.35;0.70;;;10.40;99.90;;;;;;2057152;28;20592;-76
2024/02/17 02:12:05;;;;;;;1.38;0.63;;;10.40;99.90;;;;;;2054582;28;20186;-75
2024/02/17 02:13:08;;;;;;;0.90;0.80;;;10.50;99.90;;;;;;2048979;28;20641;-75
2024/02/17 02:14:15;;;;;;;0.70;0.70;;;10.50;99.90;;;;;;2055253;28;20182;-75
2024/02/17 02:15:16;;;;;;;0.98;0.80;;;10.50;99.90;;;;;;2053279;28;20575;-76
2024/02/17 02:16:18;;;;;;;0.70;0.70;;;10.50;99.90;;;;;;2044366;28;20271;-76
2024/02/17 02:17:18;;;;;;;0.60;0.60;;;10.60;99.90;;;;;;2049691;28;20278;-76
2024/02/17 02:18:19;;;;;;;0.60;0.60;;;10.80;99.90;;;;;;2057522;28;20241;-76
2024/02/17 02:19:20;;;;;;;0.60;0.60;;;10.70;99.90;;;;;;2054676;28;20230;-76
2024/02/17 02:20:21;;;;;;;0.70;0.70;;;10.70;99.90;;;;;;2059489;28;20894;-76
2024/02/17 02:21:22;;;;;;;0.90;0.70;;;10.70;99.90;;;;;;2038973;29;20356;-75
2024/02/17 02:22:22;;;;;;;0.70;0.70;;;10.80;99.90;;;;;;2046552;28;20234;-74
2024/02/17 02:23:23;;;;;;;0.60;0.60;;;10.70;99.90;;;;;;2054088;28;20233;-75
2024/02/17 02:24:24;;;;;;;0.60;0.60;;;10.70;99.90;;;;;;2054145;28;20305;-75
2024/02/17 02:25:25;;;;;;;0.80;0.70;;;10.80;99.90;;;;;;2062340;28;20233;-75
2024/02/17 02:26:26;;;;;;;0.50;0.50;;;10.70;99.90;;;;;;2054217;28;20240;-76
2024/02/17 02:27:27;;;;;;;0.63;0.63;;;10.70;99.90;;;;;;2051037;28;20239;-76
2024/02/17 02:28:28;;;;;;;0.60;0.60;;;10.80;99.90;;;;;;2047117;28;20314;-75
2024/02/17 02:29:28;;;;;;;0.60;0.60;;;10.80;99.90;;;;;;2051246;28;20230;-76
2024/02/17 02:30:29;;;;;;;0.60;0.60;;;10.80;99.90;;;;;;2054416;28;20234;-76
2024/02/17 02:31:30;;;;;;;0.70;0.70;;;10.80;99.90;;;;;;2062336;28;20226;-75
2024/02/17 02:32:31;;;;;;;0.70;0.70;;;10.80;99.90;;;;;;2052736;28;20277;-75
2024/02/17 02:33:31;;;;;;;0.60;0.60;;;10.70;99.90;;;;;;2046501;28;20712;-75
2024/02/17 02:34:32;;;;;;;0.50;0.50;;;10.80;99.90;;;;;;2053981;28;20230;-75
2024/02/17 02:35:33;;;;;;;0.60;0.60;;;10.80;99.90;;;;;;2054220;28;20234;-76
2024/02/17 02:36:34;;;;;;;0.60;0.60;;;10.90;99.90;;;;;;2049733;28;20235;-76
2024/02/17 02:37:34;;;;;;;0.60;0.60;;;10.90;99.90;;;;;;2052571;28;21097;-76
2024/02/17 02:38:35;;;;;;;1.13;0.60;;;10.90;99.90;;;;;;2062750;28;20237;-76
2024/02/17 02:39:36;;;;;;;0.50;0.50;;;10.90;99.90;;;;;;2058280;28;20227;-76
2024/02/17 02:40:37;;;;;;;0.60;0.60;;;10.90;99.90;;;;;;2051496;28;20242;-77
2024/02/17 02:41:37;;;;;;;1.27;0.70;;;10.90;99.90;;;;;;2042137;28;20536;-75
2024/02/17 02:42:38;;;;;;;0.60;0.43;;;11.00;99.90;;;;;;2052287;28;20314;-77
2024/02/17 02:43:39;;;;;;;0.50;0.50;;;10.90;99.90;;;;;;2053836;28;20238;-76
2024/02/17 02:44:40;;;;;;;0.50;0.50;;;11.00;99.90;;;;;;2056816;28;20234;-76
2024/02/17 02:45:41;;;;;;;0.57;0.50;;;10.80;99.90;;;;;;2052030;28;21226;-76
2024/02/17 02:46:42;;;;;;;0.97;0.60;;;10.70;99.90;;;;;;2061521;28;20643;-77
2024/02/17 02:47:42;;;;;;;0.57;0.57;;;10.80;99.90;;;;;;2057834;28;20306;-75
2024/02/17 02:48:43;;;;;;;0.40;0.40;;;10.80;99.90;;;;;;2055969;28;20366;-76
2024/02/17 02:49:44;;;;;;;0.43;0.43;;;10.70;99.90;;;;;;2056771;28;20226;-75
2024/02/17 02:50:45;;;;;;;0.47;0.47;;;10.80;99.90;;;;;;2052613;28;20285;-76
2024/02/17 02:51:46;;;;;;;0.40;0.40;;;10.80;99.90;;;;;;2053880;28;20223;-76
2024/02/17 02:52:47;;;;;;;0.50;0.50;;;10.70;99.90;;;;;;2046508;28;20301;-76
2024/02/17 02:53:48;;;;;;;0.50;0.50;;;10.70;99.90;;;;;;2060160;28;20226;-77
2024/02/17 02:54:49;;;;;;;0.40;0.40;;;10.60;99.90;;;;;;2056205;28;20226;-76
2024/02/17 02:55:49;;;;;;;0.40;0.40;;;10.70;99.90;;;;;;2054385;28;20728;-76
2024/02/17 02:56:50;;;;;;;0.40;0.40;;;10.70;99.90;;;;;;2050204;28;20326;-76
2024/02/17 02:57:51;;;;;;;0.70;0.60;;;10.60;99.90;;;;;;2039032;29;20260;-76
2024/02/17 02:58:51;;;;;;;0.53;0.53;;;10.60;99.90;;;;;;2044218;29;20230;-76
2024/02/17 02:59:52;;;;;;;0.47;0.47;;;10.60;99.90;;;;;;2055505;28;20231;-75
2024/02/17 03:00:53;;;;;;;0.50;0.50;;;10.60;99.90;;;;;;2059213;28;20238;-76
2024/02/17 03:01:53;;;;;;;0.40;0.40;;;10.60;99.90;;;;;;2050692;28;20233;-76
2024/02/17 03:02:55;;;;;;;0.40;0.40;;;10.60;99.90;;;;;;2063025;28;20326;-76
2024/02/17 03:03:56;;;;;;;0.82;0.50;;;10.40;99.90;;;;;;2053524;28;20779;-76
2024/02/17 03:04:57;;;;;;;0.90;0.70;;;10.40;99.90;;;;;;2058303;28;20272;-76
2024/02/17 03:05:57;;;;;;;0.40;0.40;;;10.30;99.90;;;;;;2054439;28;20764;-75
2024/02/17 03:06:58;;;;;;;0.40;0.40;;;10.40;99.90;;;;;;2054215;28;20329;-76
2024/02/17 03:07:59;;;;;;;0.40;0.40;;;10.40;99.90;;;;;;2053441;28;20311;-75
2024/02/17 03:09:00;;;;;;;0.40;0.40;;;10.40;99.90;;;;;;2039610;29;20689;-75
2024/02/17 03:10:02;;;;;;;0.50;0.50;;;10.40;99.90;;;;;;2046286;28;20191;-75
2024/02/17 03:11:03;;;;;;;0.40;0.40;;;10.40;99.90;;;;;;2061104;28;20174;-75
2024/02/17 03:12:05;;;;;;;1.07;0.70;;;10.40;99.90;;;;;;2055580;28;20183;-77
2024/02/17 03:13:05;;;;;;;0.50;0.50;;;10.40;99.90;;;;;;2054698;28;20724;-75
2024/02/17 03:14:08;;;;;;;0.40;0.40;;;10.30;99.90;;;;;;2057915;28;20264;-76
2024/02/17 03:15:09;;;;;;;0.40;0.40;;;10.40;99.90;;;;;;2047015;28;20204;-76
2024/02/17 03:16:10;;;;;;;0.40;0.40;;;10.30;99.90;;;;;;2062100;28;20189;-76
2024/02/17 03:17:10;;;;;;;0.30;0.30;;;10.20;99.90;;;;;;2061367;28;20189;-76
2024/02/17 03:18:11;;;;;;;0.50;0.50;;;10.30;99.90;;;;;;2060359;28;20183;-76
2024/02/17 03:19:12;;;;;;;0.40;0.40;;;10.20;99.90;;;;;;2059285;28;20182;-76
2024/02/17 03:20:12;;;;;;;0.50;0.50;;;10.20;99.90;;;;;;2046343;28;20183;-75
2024/02/17 03:21:13;;;;;;;0.93;0.50;;;10.20;99.90;;;;;;2047560;28;20188;-76
2024/02/17 03:22:14;;;;;;;0.43;0.43;;;10.20;99.90;;;;;;2059900;28;20186;-76
2024/02/17 03:23:15;;;;;;;0.40;0.40;;;10.20;99.90;;;;;;2051309;28;20665;-75
2024/02/17 03:24:15;;;;;;;0.40;0.40;;;10.20;99.90;;;;;;2050712;28;20205;-76
2024/02/17 03:25:16;;;;;;;0.33;0.33;;;10.20;99.90;;;;;;2040302;28;20578;-75
2024/02/17 03:26:17;;;;;;;0.33;0.33;;;10.20;99.90;;;;;;2050628;28;20278;-76
2024/02/17 03:27:17;;;;;;;4.37;0.60;;;10.30;99.90;;;;;;2053528;28;20207;-76
2024/02/17 03:28:18;;;;;;;0.40;0.40;;;10.20;99.90;;;;;;2045558;28;20216;-76
2024/02/17 03:29:19;;;;;;;0.40;0.30;;;10.20;99.90;;;;;;2047191;28;20243;-76
2024/02/17 03:30:19;;;;;;;0.40;0.40;;;10.30;99.90;;;;;;2043467;28;20694;-75
2024/02/17 03:31:23;;;;;;;0.40;0.40;;;10.30;99.90;;;;;;2032804;29;20240;-76
2024/02/17 03:32:23;;;;;;;0.30;0.30;;;10.30;99.90;;;;;;2038377;29;20232;-76
2024/02/17 03:33:24;;;;;;;0.67;0.40;;;10.30;99.90;;;;;;2042087;28;20235;-75
2024/02/17 03:34:25;;;;;;;0.40;0.40;;;10.50;99.90;;;;;;2060014;28;20234;-76
2024/02/17 03:35:26;;;;;;;0.30;0.30;;;10.40;99.90;;;;;;2053838;28;20320;-76
2024/02/17 03:36:27;;;;;;;0.97;0.40;;;10.40;99.90;;;;;;2054098;28;20345;-76
2024/02/17 03:37:27;;;;;;;0.40;0.40;;;10.30;99.90;;;;;;2061802;28;20613;-75
2024/02/17 03:38:28;;;;;;;0.30;0.30;;;10.40;99.90;;;;;;2053181;28;20354;-77
2024/02/17 03:39:29;;;;;;;0.47;0.47;;;10.40;99.90;;;;;;2053906;28;20222;-76
2024/02/17 03:40:30;;;;;;;0.40;0.40;;;10.50;99.90;;;;;;2054258;28;20349;-77
2024/02/17 03:41:30;;;;;;;0.40;0.40;;;10.60;99.90;;;;;;2054279;28;20227;-76
2024/02/17 03:42:31;;;;;;;0.37;0.37;;;10.60;99.90;;;;;;2060204;28;20696;-76
2024/02/17 03:43:32;;;;;;;0.40;0.40;;;10.60;99.90;;;;;;2054777;28;20231;-76
2024/02/17 03:44:33;;;;;;;0.50;0.40;;;10.60;99.90;;;;;;2045620;28;20230;-75
2024/02/17 03:45:34;;;;;;;0.40;0.40;;;10.70;99.90;;;;;;2049547;28;20239;-76
2024/02/17 03:46:35;;;;;;;0.40;0.40;;;10.70;99.90;;;;;;2056418;28;20231;-76
2024/02/17 03:47:36;;;;;;;0.43;0.40;;;10.60;99.90;;;;;;2056889;28;20231;-75
2024/02/17 03:48:37;;;;;;;0.40;0.40;;;10.60;99.90;;;;;;2052081;28;20295;-75
2024/02/17 03:49:38;;;;;;;0.40;0.40;;;10.50;99.90;;;;;;2054481;28;20238;-76
2024/02/17 03:50:38;;;;;;;0.50;0.40;;;10.50;99.90;;;;;;2061536;28;20232;-76
2024/02/17 03:51:39;;;;;;;0.40;0.40;;;10.50;99.90;;;;;;2060473;28;20241;-76
2024/02/17 03:52:40;;;;;;;0.40;0.40;;;10.40;99.90;;;;;;2053899;28;20257;-76
2024/02/17 03:53:41;;;;;;;0.30;0.30;;;10.40;99.90;;;;;;2053262;28;20229;-75
2024/02/17 03:54:42;;;;;;;1.00;0.40;;;10.50;99.90;;;;;;2052990;28;20704;-75
2024/02/17 03:55:43;;;;;;;0.90;0.40;;;10.60;99.90;;;;;;2059504;28;20786;-75
2024/02/17 03:56:43;;;;;;;0.50;0.40;;;10.50;99.90;;;;;;2046573;28;20228;-76
2024/02/17 03:57:44;;;;;;;0.40;0.40;;;10.50;99.90;;;;;;2046044;28;20675;-76
2024/02/17 03:58:45;;;;;;;0.40;0.40;;;10.50;99.90;;;;;;2050356;28;20233;-75
2024/02/17 03:59:46;;;;;;;0.40;0.40;;;10.50;99.90;;;;;;2050333;28;20254;-76
2024/02/17 04:00:47;;;;;;;0.40;0.40;;;10.40;99.90;;;;;;2049916;28;20242;-76
2024/02/17 04:01:47;;;;;;;0.40;0.40;;;10.30;99.90;;;;;;2053448;28;20234;-75
2024/02/17 04:02:48;;;;;;;0.40;0.40;;;10.50;99.90;;;;;;2046913;28;20254;-76
2024/02/17 04:03:49;;;;;;;0.40;0.40;;;10.30;99.90;;;;;;2044374;28;20274;-77
2024/02/17 04:04:49;;;;;;;0.43;0.40;;;10.30;99.90;;;;;;2045568;28;20599;-76
2024/02/17 04:05:50;;;;;;;0.50;0.50;;;10.30;99.90;;;;;;2045125;29;20231;-76
2024/02/17 04:06:51;;;;;;;0.40;0.40;;;10.20;99.90;;;;;;2047225;28;20235;-76
2024/02/17 04:07:52;;;;;;;0.40;0.40;;;10.20;99.90;;;;;;2047686;28;20259;-76
2024/02/17 04:08:52;;;;;;;0.40;0.40;;;10.10;99.90;;;;;;2045206;28;20223;-75
2024/02/17 04:09:53;;;;;;;0.40;0.30;;;10.20;99.90;;;;;;2051131;28;20418;-76
2024/02/17 04:10:57;;;;;;;0.40;0.40;;;10.20;99.90;;;;;;2052865;28;20227;-76
2024/02/17 04:11:58;;;;;;;0.50;0.50;;;10.30;99.90;;;;;;2050693;28;20223;-76
2024/02/17 04:12:59;;;;;;;0.37;0.37;;;10.20;99.90;;;;;;2060697;28;20238;-74
2024/02/17 04:13:59;;;;;;;0.40;0.40;;;10.30;99.90;;;;;;2044594;28;20684;-75
2024/02/17 04:15:00;;;;;;;0.40;0.40;;;10.30;99.90;;;;;;2045444;28;20203;-75
2024/02/17 04:16:01;;;;;;;0.50;0.50;;;10.40;99.90;;;;;;2046225;28;20614;-75
2024/02/17 04:17:02;;;;;;;0.40;0.40;;;10.40;99.90;;;;;;2045722;28;20201;-75
2024/02/17 04:18:03;;;;;;;0.40;0.40;;;10.30;99.90;;;;;;2045103;28;20696;-74
2024/02/17 04:19:04;;;;;;;1.02;0.50;;;10.40;99.90;;;;;;2054911;28;20717;-75
2024/02/17 04:20:06;;;;;;;0.30;0.30;;;10.30;99.90;;;;;;2054054;28;20195;-75
2024/02/17 04:21:06;;;;;;;1.17;1.00;;;10.30;99.90;;;;;;2049011;28;20566;-75
2024/02/17 04:22:07;;;;;;;0.50;0.50;;;10.20;99.90;;;;;;2039001;28;20195;-75
2024/02/17 04:23:08;;;;;;;0.40;0.40;;;10.10;99.90;;;;;;2051724;28;20612;-75
2024/02/17 04:24:09;;;;;;;0.40;0.40;;;10.00;99.90;;;;;;2047100;28;20191;-74
2024/02/17 04:25:10;;;;;;;2.17;0.60;;;10.00;99.90;;;;;;2045247;28;20282;-74
2024/02/17 04:26:11;;;;;;;0.50;0.50;;;10.00;99.90;;;;;;2039804;28;20602;-76
2024/02/17 04:27:12;;;;;;;0.80;0.60;;;10.10;99.90;;;;;;2051785;28;20262;-76
2024/02/17 04:28:13;;;;;;;0.50;0.50;;;10.10;99.90;;;;;;2055466;28;20179;-75
2024/02/17 04:29:17;;;;;;;0.40;0.40;;;10.20;99.90;;;;;;2059563;28;20210;-76
2024/02/17 04:30:18;;;;;;;1.55;0.50;;;10.30;99.90;;;;;;2042726;28;20184;-76
2024/02/17 04:31:18;;;;;;;0.50;0.50;;;10.30;99.90;;;;;;2045012;28;20306;-76
2024/02/17 04:32:19;;;;;;;0.40;0.40;;;10.30;99.90;;;;;;2048137;28;20295;-76
2024/02/17 04:33:20;;;;;;;0.53;0.50;;;10.30;99.90;;;;;;2045598;28;20797;-76
2024/02/17 04:34:20;;;;;;;1.27;0.40;;;10.30;99.90;;;;;;2053450;28;20231;-75
2024/02/17 04:35:21;;;;;;;0.60;0.40;;;10.30;99.90;;;;;;2053297;28;20234;-75
2024/02/17 04:36:22;;;;;;;0.30;0.30;;;10.40;99.90;;;;;;2058389;28;20285;-75
2024/02/17 04:37:23;;;;;;;0.40;0.40;;;10.40;99.90;;;;;;2053418;28;20235;-75
2024/02/17 04:38:23;;;;;;;0.57;0.37;;;10.40;99.90;;;;;;2047023;28;20239;-75
2024/02/17 04:39:24;;;;;;;0.50;0.50;;;10.40;99.90;;;;;;2057602;28;20226;-75
2024/02/17 04:40:25;;;;;;;0.40;0.40;;;10.40;99.90;;;;;;2046258;28;20331;-75
2024/02/17 04:41:25;;;;;;;0.40;0.40;;;10.30;99.90;;;;;;2049007;28;20222;-76
2024/02/17 04:42:26;;;;;;;0.60;0.60;;;10.30;99.90;;;;;;2053477;28;20222;-75
2024/02/17 04:43:27;;;;;;;1.00;0.70;;;10.30;99.90;;;;;;2049665;28;20231;-76
2024/02/17 04:44:27;;;;;;;1.57;0.60;;;10.20;99.90;;;;;;2046463;28;20231;-75
2024/02/17 04:45:28;;;;;;;0.83;0.70;;;10.30;99.90;;;;;;2053533;28;20238;-75
2024/02/17 04:46:29;;;;;;;0.73;0.73;;;10.20;99.90;;;;;;2060453;28;20232;-76
2024/02/17 04:47:29;;;;;;;1.30;1.10;;;10.10;99.90;;;;;;2069857;28;20716;-75
2024/02/17 04:48:30;;;;;;;1.30;1.20;;;10.20;99.90;;;;;;2060912;28;20269;-75
2024/02/17 04:49:31;;;;;;;1.10;1.00;;;9.90;99.90;;;;;;2057277;28;20709;-75
2024/02/17 04:50:32;;;;;;;1.03;0.90;;;9.80;99.90;;;;;;2055211;28;20313;-75
2024/02/17 04:51:32;;;;;;;1.07;0.97;;;9.70;99.90;;;;;;2049845;28;20236;-76
2024/02/17 04:52:33;;;;;;;0.90;0.90;;;9.70;99.90;;;;;;2039514;29;20712;-75
2024/02/17 04:53:34;;;;;;;0.87;0.87;;;9.70;99.90;;;;;;2055407;28;20316;-75
2024/02/17 04:54:34;;;;;;;1.13;1.03;;;9.70;99.90;;;;;;2064205;28;20265;-75
2024/02/17 04:55:35;;;;;;;1.03;1.00;;;9.70;99.90;;;;;;2054334;28;20270;-75
2024/02/17 04:56:36;;;;;;;0.97;0.90;;;9.70;99.90;;;;;;2040640;28;20224;-75
2024/02/17 04:57:37;;;;;;;0.80;0.80;;;9.70;99.90;;;;;;2047013;28;20231;-75
2024/02/17 04:58:37;;;;;;;0.87;0.80;;;9.70;99.90;;;;;;2044481;28;20265;-75
2024/02/17 04:59:38;;;;;;;0.80;0.80;;;9.80;99.90;;;;;;2047997;28;20314;-75
2024/02/17 05:00:39;;;;;;;0.87;0.87;;;9.80;99.90;;;;;;2053055;28;20222;-76
2024/02/17 05:01:42;;;;;;;1.10;0.80;;;10.00;99.90;;;;;;2053400;28;20241;-75
2024/02/17 05:02:42;;;;;;;0.88;0.80;;;9.90;99.90;;;;;;2053450;28;20759;-75
2024/02/17 05:03:43;;;;;;;0.77;0.77;;;10.00;99.90;;;;;;2051464;28;20238;-76
2024/02/17 05:04:44;;;;;;;0.60;0.60;;;10.00;99.90;;;;;;2052966;28;20759;-75
2024/02/17 05:05:44;;;;;;;0.57;0.53;;;10.00;99.90;;;;;;2055163;28;20235;-75
2024/02/17 05:06:48;;;;;;;0.60;0.60;;;10.00;99.90;;;;;;2055715;28;20806;-76
2024/02/17 05:07:49;;;;;;;0.55;0.55;;;9.90;99.90;;;;;;2054662;28;20782;-75
2024/02/17 05:08:50;;;;;;;0.60;0.60;;;9.90;99.90;;;;;;2052443;28;20245;-75
2024/02/17 05:09:51;;;;;;;0.60;0.60;;;9.90;99.90;;;;;;2045341;28;20231;-75
2024/02/17 05:10:51;;;;;;;0.50;0.50;;;9.90;99.90;;;;;;2038416;28;20235;-76
2024/02/17 05:11:55;;;;;;;0.50;0.50;;;9.90;99.90;;;;;;2052365;28;20655;-75
2024/02/17 05:12:56;;;;;;;0.63;0.63;;;9.90;99.90;;;;;;2046329;28;20231;-76
2024/02/17 05:13:56;;;;;;;0.83;0.63;;;10.00;99.90;;;;;;2045497;28;20284;-76
2024/02/17 05:14:57;;;;;;;0.60;0.60;;;10.00;99.90;;;;;;2060746;28;20230;-76
2024/02/17 05:15:58;;;;;;;0.60;0.60;;;10.00;99.90;;;;;;2053923;28;20652;-75
2024/02/17 05:16:58;;;;;;;0.50;0.50;;;10.10;99.90;;;;;;2055267;28;20723;-76
2024/02/17 05:17:59;;;;;;;0.57;0.57;;;10.10;99.90;;;;;;2052295;28;20351;-74